Mankato, Minnesota
Current Conditions -  °F | °C
As of 1:55 AM on Wednesday 26 Nov 2014 (Local Time) from KMKT Reporting Station
Overcast Overcast  
Wind Chill: 13°   Ceiling: 7000
Heat Index: 25°   Visibility: 10mi
Dew Point: 16°   Wind: 14mph
Humidity: 69%   Direction: 130°SE
Pressure: 29.96"   Gusts: NA
Location:  44.17°N, 94°W
Report Text: KMKT 260755Z AUTO 13012KT 10SM SCT035 BKN070 OVC090 M04/M09 A2996 RMK AO1
Loading
Personal Weather Stations






























Interactive Weather Map New forecast layout! Learn more

10-Day Weather Forecast

Advertisements
Track Severe Weather on mobile